Rio Teslin — A8JS6 — position and weather

sailwx.info

Track history (hours):
 
Tides and Currents Weather Stations Pressure Air Temp Water Temp Dewpoint Dewpoint Depression Visibility Wind Speed Wind Dir Waves Ship Positions

Rio Teslin

Last reported at 2018-Feb-18 12:30 UTC. Time now 2018-Feb-20 09:59 UTC.
Position N 48°40' W 006°07'.

Length 210 m; draft 8.7 m.

Type: Ship (hazmat cat A). MMSI: 636091130.

Date/timePositionNaut miles runAvg speedWind from/ knotsBaromVisibWave heightAir tempDewpointWater temp
2018-Feb-18 12:30N 48°40' W 006°07'5 9.8
2018-Feb-18 12:00N 48°42' W 006°01'110 9.9
2018-Feb-18 00:55N 49°43' W 003°41'410.2
2018-Feb-18 00:30N 49°45' W 003°35'510.1
2018-Feb-18 00:00N 49°48' W 003°28'510.5
2018-Feb-17 23:30N 49°50' W 003°21'611.2
2018-Feb-17 23:00N 49°53' W 003°13'510.2
2018-Feb-17 22:30N 49°55' W 003°07'510.2
2018-Feb-17 22:00N 49°58' W 002°60'910.2
2018-Feb-17 21:10N 50°01' W 002°48'1 9.6
2018-Feb-17 21:00N 50°02' W 002°45'4 7.5
2018-Feb-17 20:30N 50°03' W 002°40'3 6.9
2018-Feb-17 20:01N 50°03' W 002°35'5 7.1
2018-Feb-17 19:22N 50°05' W 002°28'14 8.5
2018-Feb-17 17:44N 50°08' W 002°07'210.1
2018-Feb-17 17:30N 50°09' W 002°03'510.9
2018-Feb-17 17:00N 50°10' W 001°55'611.7
2018-Feb-17 16:30N 50°12' W 001°46'612.3
2018-Feb-17 16:00N 50°13' W 001°37'612.6
2018-Feb-17 15:31N 50°15' W 001°28'612.7
2018-Feb-17 15:00N 50°17' W 001°18'612.7
2018-Feb-17 14:30N 50°19' W 001°08'612.5
2018-Feb-17 14:00N 50°20' W 000°59'611.6
2018-Feb-17 13:31N 50°22' W 000°50'510.4
2018-Feb-17 13:00N 50°23' W 000°42'5 9.9
2018-Feb-17 12:30N 50°24' W 000°35'5 9.4
2018-Feb-17 12:00N 50°26' W 000°28'4 8.9
2018-Feb-17 11:31N 50°27' W 000°21'4 8.3
2018-Feb-17 11:00N 50°28' W 000°15'4 7.9
2018-Feb-17 10:30N 50°29' W 000°09'4 7.5
2018-Feb-17 10:00N 50°30' W 000°03'4 7.3
2018-Feb-17 09:30N 50°31' E 000°03'4 7.6
2018-Feb-17 09:00N 50°32' E 000°08'4 7.9
2018-Feb-17 08:30N 50°33' E 000°14'4 8.5
2018-Feb-17 08:00N 50°34' E 000°21'5 9.2
2018-Feb-17 07:30N 50°35' E 000°28'510.1
2018-Feb-17 07:00N 50°37' E 000°35'510.5
2018-Feb-17 06:30N 50°40' E 000°42'510.8
2018-Feb-17 06:00N 50°43' E 000°49'611.0
2018-Feb-17 05:30N 50°46' E 000°57'510.7
2018-Feb-17 05:00N 50°49' E 001°03'510.3
2018-Feb-17 04:30N 50°52' E 001°09'5 9.7
2018-Feb-17 03:58N 50°56' E 001°15'4 9.1
2018-Feb-17 03:30N 50°60' E 001°19'4 8.4
2018-Feb-17 03:00N 51°02' E 001°24'4 7.8
2018-Feb-17 02:30N 51°05' E 001°29'4 7.1
2018-Feb-17 02:00N 51°07' E 001°33'3 6.5
2018-Feb-17 01:30N 51°09' E 001°37'3 6.7
2018-Feb-17 01:00N 51°12' E 001°39'4 7.5
2018-Feb-17 00:30N 51°16' E 001°41'4 8.2
2018-Feb-17 00:00N 51°20' E 001°44'4 8.9
2018-Feb-16 23:30N 51°24' E 001°45'5 9.7
2018-Feb-16 23:00N 51°29' E 001°46'510.7
2018-Feb-16 22:30N 51°34' E 001°46'611.4
2018-Feb-16 22:00N 51°40' E 001°45'611.7
2018-Feb-16 21:30N 51°45' E 001°44'5 9.7
2018-Feb-16 21:00N 51°50' E 001°40'5 9.6
2018-Feb-16 20:30N 51°52' E 001°34'510.6
2018-Feb-16 20:01N 51°56' E 001°28'611.2
2018-Feb-16 19:30N 51°56' E 001°19'2 3.0
2018-Feb-16 18:58N 51°57' E 001°18'0 0.0
2018-Feb-16 18:28N 51°57' E 001°18'0 0.0
2018-Feb-16 17:58N 51°57' E 001°18'0 0.0
2018-Feb-16 17:28N 51°57' E 001°18'0 0.0
2018-Feb-16 16:58N 51°57' E 001°18'0 0.0
2018-Feb-16 16:30N 51°57' E 001°18'0 0.0
2018-Feb-16 16:00N 51°57' E 001°18'0 0.0
2018-Feb-16 15:30N 51°57' E 001°18'0 0.0
2018-Feb-16 15:00N 51°57' E 001°18'0 0.0
2018-Feb-16 14:26N 51°57' E 001°18'0 0.0
2018-Feb-16 13:59N 51°57' E 001°18'0 0.0
2018-Feb-16 13:29N 51°57' E 001°18'0 0.0
2018-Feb-16 12:59N 51°57' E 001°18'0 0.0
2018-Feb-16 12:29N 51°57' E 001°18'0 0.0
2018-Feb-16 11:58N 51°57' E 001°18'0 0.0
2018-Feb-16 11:28N 51°57' E 001°18'0 0.0
2018-Feb-16 10:58N 51°57' E 001°18'0 0.0
2018-Feb-16 10:28N 51°57' E 001°18'0 0.0
2018-Feb-16 09:58N 51°57' E 001°18'0 0.0
2018-Feb-16 09:30N 51°57' E 001°18'0 0.0
2018-Feb-16 09:00N 51°57' E 001°18'0 0.0
2018-Feb-16 08:30N 51°57' E 001°18'0 0.0
2018-Feb-16 08:00N 51°57' E 001°18'0 0.0
2018-Feb-16 07:29N 51°57' E 001°18'0 0.0
2018-Feb-16 06:59N 51°57' E 001°18'0 0.0
2018-Feb-16 06:29N 51°57' E 001°18'0 0.0
2018-Feb-16 05:56N 51°57' E 001°18'0 0.0
2018-Feb-16 05:29N 51°57' E 001°18'0 0.0
2018-Feb-16 04:58N 51°57' E 001°18'0 0.0
2018-Feb-16 04:28N 51°57' E 001°18'0 0.0
2018-Feb-16 03:58N 51°57' E 001°18'0 0.0
2018-Feb-16 03:28N 51°57' E 001°18'0 0.0
2018-Feb-16 03:00N 51°57' E 001°18'0 0.0
2018-Feb-16 02:30N 51°57' E 001°18'0 0.0
2018-Feb-16 02:00N 51°57' E 001°18'0 0.0
2018-Feb-16 01:30N 51°57' E 001°18'0 0.0
2018-Feb-16 01:00N 51°57' E 001°18'0 0.0
2018-Feb-16 00:29N 51°57' E 001°18'0 0.0
2018-Feb-15 23:59N 51°57' E 001°18'0 0.0
2018-Feb-15 23:29N 51°57' E 001°18'0 0.0
2018-Feb-15 22:59N 51°57' E 001°18'0 0.0
2018-Feb-15 22:29N 51°57' E 001°18'0 0.0
2018-Feb-15 21:58N 51°57' E 001°18'0 0.0
2018-Feb-15 21:28N 51°57' E 001°18'0 0.0
2018-Feb-15 20:58N 51°57' E 001°18'0 0.0
2018-Feb-15 20:28N 51°57' E 001°18'0 0.0
2018-Feb-15 20:01N 51°57' E 001°18'0 0.0
2018-Feb-15 19:30N 51°57' E 001°18'0 0.0
2018-Feb-15 19:00N 51°57' E 001°18'0 0.0
2018-Feb-15 18:30N 51°57' E 001°18'0 0.0
2018-Feb-15 18:00N 51°57' E 001°18'0 0.0
2018-Feb-15 17:29N 51°57' E 001°18'0 0.0
2018-Feb-15 16:59N 51°57' E 001°18'0 0.0
2018-Feb-15 16:29N 51°57' E 001°18'0 0.0
2018-Feb-15 15:59N 51°57' E 001°18'0 0.0
2018-Feb-15 15:30N 51°57' E 001°18'0 0.0
2018-Feb-15 14:58N 51°57' E 001°18'0 0.0
2018-Feb-15 14:28N 51°57' E 001°18'0 0.0
2018-Feb-15 14:00N 51°57' E 001°18'2 3.4
2018-Feb-15 13:30N 51°56' E 001°19'611.3
2018-Feb-15 13:00N 51°56' E 001°28'510.3
2018-Feb-15 12:30N 51°53' E 001°34'4 8.8
2018-Feb-15 12:00N 51°52' E 001°41'3 5.5
2018-Feb-15 11:29N 51°54' E 001°40'0 0.1
2018-Feb-15 10:59N 51°54' E 001°40'0 0.2
2018-Feb-15 10:29N 51°54' E 001°40'0 0.0
2018-Feb-15 09:59N 51°54' E 001°40'0 0.0
2018-Feb-15 09:28N 51°54' E 001°40'0 0.0
2018-Feb-15 08:58N 51°54' E 001°40'0 0.0
2018-Feb-15 08:28N 51°54' E 001°40'0 0.0
2018-Feb-15 07:58N 51°54' E 001°40'0 0.4
2018-Feb-15 07:28N 51°54' E 001°40'0 0.2
2018-Feb-15 07:00N 51°54' E 001°40'0 0.2
2018-Feb-15 06:30N 51°54' E 001°40'0 0.0
2018-Feb-15 06:00N 51°54' E 001°40'0 0.0
2018-Feb-15 05:30N 51°54' E 001°40'0 0.0
2018-Feb-15 05:00N 51°54' E 001°40'0 0.0
2018-Feb-15 04:29N 51°54' E 001°40'0 0.0
2018-Feb-15 03:56N 51°54' E 001°40'0 0.0
2018-Feb-15 03:29N 51°54' E 001°40'0 0.0
2018-Feb-15 02:59N 51°54' E 001°40'0 0.0
2018-Feb-15 02:28N 51°54' E 001°40'0 0.0
2018-Feb-15 01:58N 51°54' E 001°40'0 0.0
2018-Feb-15 01:28N 51°54' E 001°40'0 0.0
2018-Feb-15 00:58N 51°54' E 001°40'0 0.0
2018-Feb-15 00:28N 51°54' E 001°40'0 0.0
2018-Feb-15 00:00N 51°54' E 001°40'0 0.0
2018-Feb-14 23:30N 51°54' E 001°40'0 0.1
2018-Feb-14 23:00N 51°54' E 001°40'0 0.0
2018-Feb-14 22:30N 51°54' E 001°40'0 0.0
2018-Feb-14 21:59N 51°54' E 001°40'0 0.0
2018-Feb-14 21:29N 51°54' E 001°40'0 0.0
2018-Feb-14 20:56N 51°54' E 001°40'0 0.0
2018-Feb-14 20:29N 51°54' E 001°40'0 0.0
2018-Feb-14 19:59N 51°54' E 001°40'0 0.0
2018-Feb-14 19:28N 51°54' E 001°40'0 0.1
2018-Feb-14 18:58N 51°54' E 001°40'0 0.0
2018-Feb-14 18:28N 51°54' E 001°40'0 0.0
2018-Feb-14 17:58N 51°54' E 001°40'0 0.1
2018-Feb-14 17:28N 51°54' E 001°40'0 0.0
2018-Feb-14 17:00N 51°54' E 001°40'0 0.0
2018-Feb-14 16:30N 51°54' E 001°40'0 0.0
2018-Feb-14 16:00N 51°54' E 001°40'0 0.0
2018-Feb-14 15:30N 51°54' E 001°40'0 0.0
2018-Feb-14 14:59N 51°54' E 001°40'0 0.1
2018-Feb-14 14:29N 51°54' E 001°40'1 2.3
2018-Feb-14 14:00N 51°55' E 001°41'3 6.2
2018-Feb-14 13:30N 51°53' E 001°44'510.5
2018-Feb-14 13:00N 51°50' E 001°51'4 7.7
2018-Feb-14 12:31N 51°51' E 001°57'4 7.7
2018-Feb-14 12:01N 51°53' E 002°03'4 7.4
2018-Feb-14 11:30N 51°54' E 002°08'5 7.9
2018-Feb-14 10:52N 51°56' E 002°16'47 9.1
2018-Feb-14 05:43N 52°03' E 003°31'2 9.4
2018-Feb-14 05:28N 52°03' E 003°35'4 9.5
2018-Feb-14 05:00N 52°03' E 003°42'5 9.5
2018-Feb-14 04:30N 52°03' E 003°50'5 9.3
2018-Feb-14 04:01N 52°02' E 003°57'612.3
2018-Feb-14 03:30N 51°58' E 004°05'3 5.6
2018-Feb-14 03:00N 51°59' E 004°01'1 2.3
2018-Feb-14 02:28N 51°57' E 004°00'0 0.0
2018-Feb-14 01:58N 51°57' E 004°00'0 0.0
2018-Feb-14 01:28N 51°57' E 004°00'0 0.0
2018-Feb-14 00:52N 51°57' E 004°00'0 0.0
2018-Feb-14 00:27N 51°57' E 004°00'0 0.0
2018-Feb-14 00:00N 51°57' E 004°00'0 0.0
2018-Feb-13 23:30N 51°57' E 004°00'0 0.1
2018-Feb-13 22:57N 51°57' E 004°00'0 0.1
2018-Feb-13 22:30N 51°57' E 004°00'0 0.0
2018-Feb-13 21:59N 51°57' E 004°00'0 0.0
2018-Feb-13 21:29N 51°57' E 004°00'0 0.0
2018-Feb-13 20:59N 51°57' E 004°00'0 0.0
2018-Feb-13 20:26N 51°57' E 004°00'0 0.0
2018-Feb-13 19:58N 51°57' E 004°00'0 0.5
2018-Feb-13 19:30N 51°58' E 004°00'2 3.9
2018-Feb-13 19:01N 51°58' E 004°03'3 5.4
2018-Feb-13 18:30N 51°60' E 003°60'713.3
2018-Feb-13 18:00N 52°00' E 003°49'3 7.0
2018-Feb-13 17:30N 52°04' E 003°47'3 5.8
2018-Feb-13 17:00N 52°06' E 003°47'3 6.4
2018-Feb-13 16:30N 52°10' E 003°47'4 8.0
2018-Feb-13 16:00N 52°14' E 003°47'4 7.4
2018-Feb-13 15:31N 52°17' E 003°47'2 3.5
2018-Feb-13 15:00N 52°19' E 003°48'2 3.2
2018-Feb-13 14:30N 52°21' E 003°48'1 3.0
2018-Feb-13 14:01N 52°22' E 003°49'1 2.9
2018-Feb-13 13:30N 52°23' E 003°49'4 7.1
2018-Feb-13 13:01N 52°27' E 003°51'5 9.9
2018-Feb-13 12:30N 52°32' E 003°52'5 9.5
2018-Feb-13 11:56N 52°37' E 003°54'7 9.2
2018-Feb-13 11:12N 52°44' E 003°56'3110.4
2018-Feb-13 08:15N 53°09' E 004°24'14710.8
2018-Feb-12 18:42N 54°00' E 008°16'310.9
2018-Feb-12 18:26N 53°59' E 008°21'614.4
2018-Feb-12 18:00N 53°58' E 008°32'815.5
2018-Feb-12 17:31N 53°54' E 008°42'713.5
2018-Feb-12 17:01N 53°50' E 008°52'816.4
2018-Feb-12 16:30N 53°53' E 009°06'713.2
2018-Feb-12 16:01N 53°52' E 009°17'714.9
2018-Feb-12 15:30N 53°46' E 009°24'713.8
2018-Feb-12 15:01N 53°40' E 009°31'612.9
2018-Feb-12 14:30N 53°35' E 009°37'611.3
2018-Feb-12 14:00N 53°34' E 009°46'5 9.2
2018-Feb-12 13:30N 53°33' E 009°54'4 7.0
2018-Feb-12 13:00N 53°32' E 009°60'0 0.2
2018-Feb-12 12:30N 53°32' E 009°60'0 0.0
2018-Feb-12 12:00N 53°32' E 009°60'0 0.0
2018-Feb-12 11:30N 53°32' E 009°60'0 0.0
2018-Feb-12 10:59N 53°32' E 009°60'0 0.0
2018-Feb-12 10:29N 53°32' E 009°60'0 0.0
2018-Feb-12 09:59N 53°32' E 009°60'0 0.0
2018-Feb-12 09:29N 53°32' E 009°60'0 0.0
2018-Feb-12 08:59N 53°32' E 009°60'0 0.0
2018-Feb-12 08:28N 53°32' E 009°60'0 0.0
2018-Feb-12 07:58N 53°32' E 009°60'0 0.0
2018-Feb-12 07:28N 53°32' E 009°60'0 0.0
2018-Feb-12 06:58N 53°32' E 009°60'0 0.0
2018-Feb-12 06:30N 53°32' E 009°60'0 0.0
2018-Feb-12 06:00N 53°32' E 009°60'0 0.0
2018-Feb-12 05:30N 53°32' E 009°60'0 0.0
2018-Feb-12 05:00N 53°32' E 009°60'0 0.0
2018-Feb-12 04:30N 53°32' E 009°60'0 0.0
2018-Feb-12 03:59N 53°32' E 009°60'0 0.0
2018-Feb-12 03:29N 53°32' E 009°60'0 0.0
2018-Feb-12 02:59N 53°32' E 009°60'0 0.0
2018-Feb-12 02:29N 53°32' E 009°60'0 0.0
2018-Feb-12 01:59N 53°32' E 009°60'0 0.0
2018-Feb-12 01:28N 53°32' E 009°60'0 0.0
2018-Feb-12 00:59N 53°32' E 009°60'0 0.0
2018-Feb-12 00:28N 53°32' E 009°60'0 0.0
2018-Feb-11 23:58N 53°32' E 009°60'0 0.0
2018-Feb-11 23:30N 53°32' E 009°60'0 0.0
2018-Feb-11 23:00N 53°32' E 009°60'0 0.0
2018-Feb-11 22:30N 53°32' E 009°60'0 0.0
2018-Feb-11 22:00N 53°32' E 009°60'0 0.0
2018-Feb-11 21:30N 53°32' E 009°60'0 0.0
2018-Feb-11 20:59N 53°32' E 009°60'0 0.0
2018-Feb-11 20:29N 53°32' E 009°60'0 0.0
2018-Feb-11 19:59N 53°32' E 009°60'0 0.0
2018-Feb-11 19:30N 53°32' E 009°60'1 2.4
2018-Feb-11 19:00N 53°33' E 009°58'4 8.7
2018-Feb-11 18:30N 53°33' E 009°51'4 8.5
2018-Feb-11 18:00N 53°34' E 009°44'510.4
2018-Feb-11 17:30N 53°36' E 009°36'5 9.7
2018-Feb-11 17:01N 53°40' E 009°31'510.6
2018-Feb-11 16:30N 53°44' E 009°26'611.5
2018-Feb-11 16:00N 53°49' E 009°22'611.9
2018-Feb-11 15:31N 53°53' E 009°14'5 9.9
2018-Feb-11 15:00N 53°52' E 009°05'612.3
2018-Feb-11 14:30N 53°51' E 008°55'611.7
2018-Feb-11 14:00N 53°51' E 008°45'611.7
2018-Feb-11 13:30N 53°56' E 008°40'916.3
2018-Feb-11 12:58N 53°59' E 008°26'816.5
2018-Feb-11 12:30N 53°60' E 008°12'713.6
2018-Feb-11 12:00N 53°59' E 008°01'611.7
2018-Feb-11 11:30N 53°58' E 007°51'4 7.8
2018-Feb-11 10:59N 53°57' E 007°45'43 9.3
2018-Feb-11 06:22N 53°47' E 006°34'510.0
2018-Feb-11 05:53N 53°46' E 006°26'4110.1
2018-Feb-11 01:52N 53°33' E 005°21'3110.1
2018-Feb-10 22:50N 53°17' E 004°37'411.0
2018-Feb-10 22:30N 53°14' E 004°34'610.9
2018-Feb-10 22:00N 53°09' E 004°30'510.9
2018-Feb-10 21:30N 53°04' E 004°26'510.5
2018-Feb-10 21:00N 52°59' E 004°22'510.2
2018-Feb-10 20:29N 52°55' E 004°17'510.1
2018-Feb-10 20:00N 52°51' E 004°14'610.3
2018-Feb-10 19:23N 52°46' E 004°06'410.1
2018-Feb-10 19:00N 52°43' E 004°02'510.1
2018-Feb-10 18:30N 52°39' E 003°56'510.0
2018-Feb-10 18:00N 52°35' E 003°51'510.0
2018-Feb-10 17:30N 52°32' E 003°46'5 9.9
2018-Feb-10 17:00N 52°28' E 003°40'5 9.8
2018-Feb-10 16:30N 52°24' E 003°35'5 9.4
2018-Feb-10 16:00N 52°20' E 003°32'5 9.6
2018-Feb-10 15:30N 52°15' E 003°31'5 9.8
2018-Feb-10 15:00N 52°10' E 003°31'8 9.8
2018-Feb-10 14:11N 52°03' E 003°24'310.2
2018-Feb-10 13:55N 52°00' E 003°24'1310.3
2018-Feb-10 12:36N 51°48' E 003°17'410.1
2018-Feb-10 12:11N 51°43' E 003°17'2 9.6
2018-Feb-10 11:57N 51°41' E 003°19'613.6
2018-Feb-10 11:30N 51°36' E 003°23'714.7
2018-Feb-10 11:00N 51°30' E 003°29'611.5
2018-Feb-10 10:30N 51°26' E 003°36'5 9.6
2018-Feb-10 10:00N 51°23' E 003°43'713.5
2018-Feb-10 09:30N 51°21' E 003°53'612.5
2018-Feb-10 09:00N 51°26' E 003°59'611.9
2018-Feb-10 08:30N 51°22' E 004°06'5 9.4
2018-Feb-10 08:00N 51°22' E 004°14'5 9.8
2018-Feb-10 07:30N 51°18' E 004°18'1 2.7
2018-Feb-10 07:00N 51°17' E 004°20'0 0.0
2018-Feb-10 06:30N 51°17' E 004°20'0 0.2
2018-Feb-10 06:00N 51°17' E 004°20'3 5.2
2018-Feb-10 05:30N 51°15' E 004°23'1 1.9
2018-Feb-10 05:00N 51°16' E 004°24'0 0.0
2018-Feb-10 04:27N 51°16' E 004°24'0 0.0
2018-Feb-10 04:00N 51°16' E 004°24'0 0.0
2018-Feb-10 03:24N 51°16' E 004°24'0 0.0
2018-Feb-10 03:00N 51°16' E 004°24'0 0.0
2018-Feb-10 02:29N 51°16' E 004°24'0 0.0
2018-Feb-10 01:56N 51°16' E 004°24'0 0.0
2018-Feb-10 01:29N 51°16' E 004°24'0 0.0
2018-Feb-10 00:56N 51°16' E 004°24'0 0.0
2018-Feb-10 00:28N 51°16' E 004°24'0 0.0
2018-Feb-09 23:58N 51°16' E 004°24'0 0.0
2018-Feb-09 23:28N 51°16' E 004°24'0 0.0
2018-Feb-09 22:58N 51°16' E 004°24'0 0.0
2018-Feb-09 22:43N 51°16' E 004°24'0 0.0
2018-Feb-09 11:00N 51°16' E 004°24'0 0.0
2018-Feb-09 02:00N 51°16' E 004°24'1 1.8
2018-Feb-09 01:30N 51°15' E 004°24'3 3.0
2018-Feb-09 00:30N 51°17' E 004°20'8 3.9
2018-Feb-08 22:30N 51°23' E 004°13'611.3
2018-Feb-08 22:00N 51°22' E 004°04'14 9.2
2018-Feb-08 20:30N 51°25' E 003°42'5814.4
2018-Feb-08 16:30N 51°16' E 002°11'1717.2
2018-Feb-08 15:30N 51°07' E 001°48'917.1
2018-Feb-08 15:00N 51°01' E 001°38'816.8
2018-Feb-08 14:30N 50°55' E 001°29'  
Track history (hours):
 
Tides and Currents Weather Stations Pressure Air Temp Water Temp Dewpoint Dewpoint Depression Visibility Wind Speed Wind Dir Waves Ship Positions

Rio Teslin

Last reported at 2018-Feb-18 12:30 UTC. Time now 2018-Feb-20 09:59 UTC.
Position N 48°40' W 006°07'.

Length 210 m; draft 8.7 m.

Type: Ship (hazmat cat A). MMSI: 636091130.

Date/timePositionNaut miles runAvg speedWind from/ knotsBaromVisibWave heightAir tempDewpointWater temp
2018-Feb-18 12:30N 48°40' W 006°07'5 9.8
2018-Feb-18 12:00N 48°42' W 006°01'110 9.9
2018-Feb-18 00:55N 49°43' W 003°41'410.2
2018-Feb-18 00:30N 49°45' W 003°35'510.1
2018-Feb-18 00:00N 49°48' W 003°28'510.5
2018-Feb-17 23:30N 49°50' W 003°21'611.2
2018-Feb-17 23:00N 49°53' W 003°13'510.2
2018-Feb-17 22:30N 49°55' W 003°07'510.2
2018-Feb-17 22:00N 49°58' W 002°60'910.2
2018-Feb-17 21:10N 50°01' W 002°48'1 9.6
2018-Feb-17 21:00N 50°02' W 002°45'4 7.5
2018-Feb-17 20:30N 50°03' W 002°40'3 6.9
2018-Feb-17 20:01N 50°03' W 002°35'5 7.1
2018-Feb-17 19:22N 50°05' W 002°28'14 8.5
2018-Feb-17 17:44N 50°08' W 002°07'210.1
2018-Feb-17 17:30N 50°09' W 002°03'510.9
2018-Feb-17 17:00N 50°10' W 001°55'611.7
2018-Feb-17 16:30N 50°12' W 001°46'612.3
2018-Feb-17 16:00N 50°13' W 001°37'612.6
2018-Feb-17 15:31N 50°15' W 001°28'612.7
2018-Feb-17 15:00N 50°17' W 001°18'612.7
2018-Feb-17 14:30N 50°19' W 001°08'612.5
2018-Feb-17 14:00N 50°20' W 000°59'611.6
2018-Feb-17 13:31N 50°22' W 000°50'510.4
2018-Feb-17 13:00N 50°23' W 000°42'5 9.9
2018-Feb-17 12:30N 50°24' W 000°35'5 9.4
2018-Feb-17 12:00N 50°26' W 000°28'4 8.9
2018-Feb-17 11:31N 50°27' W 000°21'4 8.3
2018-Feb-17 11:00N 50°28' W 000°15'4 7.9
2018-Feb-17 10:30N 50°29' W 000°09'4 7.5
2018-Feb-17 10:00N 50°30' W 000°03'4 7.3
2018-Feb-17 09:30N 50°31' E 000°03'4 7.6
2018-Feb-17 09:00N 50°32' E 000°08'4 7.9
2018-Feb-17 08:30N 50°33' E 000°14'4 8.5
2018-Feb-17 08:00N 50°34' E 000°21'5 9.2
2018-Feb-17 07:30N 50°35' E 000°28'510.1
2018-Feb-17 07:00N 50°37' E 000°35'510.5
2018-Feb-17 06:30N 50°40' E 000°42'510.8
2018-Feb-17 06:00N 50°43' E 000°49'611.0
2018-Feb-17 05:30N 50°46' E 000°57'510.7
2018-Feb-17 05:00N 50°49' E 001°03'510.3
2018-Feb-17 04:30N 50°52' E 001°09'5 9.7
2018-Feb-17 03:58N 50°56' E 001°15'4 9.1
2018-Feb-17 03:30N 50°60' E 001°19'4 8.4
2018-Feb-17 03:00N 51°02' E 001°24'4 7.8
2018-Feb-17 02:30N 51°05' E 001°29'4 7.1
2018-Feb-17 02:00N 51°07' E 001°33'3 6.5
2018-Feb-17 01:30N 51°09' E 001°37'3 6.7
2018-Feb-17 01:00N 51°12' E 001°39'4 7.5
2018-Feb-17 00:30N 51°16' E 001°41'4 8.2
2018-Feb-17 00:00N 51°20' E 001°44'4 8.9
2018-Feb-16 23:30N 51°24' E 001°45'5 9.7
2018-Feb-16 23:00N 51°29' E 001°46'510.7
2018-Feb-16 22:30N 51°34' E 001°46'611.4
2018-Feb-16 22:00N 51°40' E 001°45'611.7
2018-Feb-16 21:30N 51°45' E 001°44'5 9.7
2018-Feb-16 21:00N 51°50' E 001°40'5 9.6
2018-Feb-16 20:30N 51°52' E 001°34'510.6
2018-Feb-16 20:01N 51°56' E 001°28'611.2
2018-Feb-16 19:30N 51°56' E 001°19'2 3.0
2018-Feb-16 18:58N 51°57' E 001°18'0 0.0
2018-Feb-16 18:28N 51°57' E 001°18'0 0.0
2018-Feb-16 17:58N 51°57' E 001°18'0 0.0
2018-Feb-16 17:28N 51°57' E 001°18'0 0.0
2018-Feb-16 16:58N 51°57' E 001°18'0 0.0
2018-Feb-16 16:30N 51°57' E 001°18'0 0.0
2018-Feb-16 16:00N 51°57' E 001°18'0 0.0
2018-Feb-16 15:30N 51°57' E 001°18'0 0.0
2018-Feb-16 15:00N 51°57' E 001°18'0 0.0
2018-Feb-16 14:26N 51°57' E 001°18'0 0.0
2018-Feb-16 13:59N 51°57' E 001°18'0 0.0
2018-Feb-16 13:29N 51°57' E 001°18'0 0.0
2018-Feb-16 12:59N 51°57' E 001°18'0 0.0
2018-Feb-16 12:29N 51°57' E 001°18'0 0.0
2018-Feb-16 11:58N 51°57' E 001°18'0 0.0
2018-Feb-16 11:28N 51°57' E 001°18'0 0.0
2018-Feb-16 10:58N 51°57' E 001°18'0 0.0
2018-Feb-16 10:28N 51°57' E 001°18'0 0.0
2018-Feb-16 09:58N 51°57' E 001°18'0 0.0
2018-Feb-16 09:30N 51°57' E 001°18'0 0.0
2018-Feb-16 09:00N 51°57' E 001°18'0 0.0
2018-Feb-16 08:30N 51°57' E 001°18'0 0.0
2018-Feb-16 08:00N 51°57' E 001°18'0 0.0
2018-Feb-16 07:29N 51°57' E 001°18'0 0.0
2018-Feb-16 06:59N 51°57' E 001°18'0 0.0
2018-Feb-16 06:29N 51°57' E 001°18'0 0.0
2018-Feb-16 05:56N 51°57' E 001°18'0 0.0
2018-Feb-16 05:29N 51°57' E 001°18'0 0.0
2018-Feb-16 04:58N 51°57' E 001°18'0 0.0
2018-Feb-16 04:28N 51°57' E 001°18'0 0.0
2018-Feb-16 03:58N 51°57' E 001°18'0 0.0
2018-Feb-16 03:28N 51°57' E 001°18'0 0.0
2018-Feb-16 03:00N 51°57' E 001°18'0 0.0
2018-Feb-16 02:30N 51°57' E 001°18'0 0.0
2018-Feb-16 02:00N 51°57' E 001°18'0 0.0
2018-Feb-16 01:30N 51°57' E 001°18'0 0.0
2018-Feb-16 01:00N 51°57' E 001°18'0 0.0
2018-Feb-16 00:29N 51°57' E 001°18'0 0.0
2018-Feb-15 23:59N 51°57' E 001°18'0 0.0
2018-Feb-15 23:29N 51°57' E 001°18'0 0.0
2018-Feb-15 22:59N 51°57' E 001°18'0 0.0
2018-Feb-15 22:29N 51°57' E 001°18'0 0.0
2018-Feb-15 21:58N 51°57' E 001°18'0 0.0
2018-Feb-15 21:28N 51°57' E 001°18'0 0.0
2018-Feb-15 20:58N 51°57' E 001°18'0 0.0
2018-Feb-15 20:28N 51°57' E 001°18'0 0.0
2018-Feb-15 20:01N 51°57' E 001°18'0 0.0
2018-Feb-15 19:30N 51°57' E 001°18'0 0.0
2018-Feb-15 19:00N 51°57' E 001°18'0 0.0
2018-Feb-15 18:30N 51°57' E 001°18'0 0.0
2018-Feb-15 18:00N 51°57' E 001°18'0 0.0
2018-Feb-15 17:29N 51°57' E 001°18'0 0.0
2018-Feb-15 16:59N 51°57' E 001°18'0 0.0
2018-Feb-15 16:29N 51°57' E 001°18'0 0.0
2018-Feb-15 15:59N 51°57' E 001°18'0 0.0
2018-Feb-15 15:30N 51°57' E 001°18'0 0.0
2018-Feb-15 14:58N 51°57' E 001°18'0 0.0
2018-Feb-15 14:28N 51°57' E 001°18'0 0.0
2018-Feb-15 14:00N 51°57' E 001°18'2 3.4
2018-Feb-15 13:30N 51°56' E 001°19'611.3
2018-Feb-15 13:00N 51°56' E 001°28'510.3
2018-Feb-15 12:30N 51°53' E 001°34'4 8.8
2018-Feb-15 12:00N 51°52' E 001°41'3 5.5
2018-Feb-15 11:29N 51°54' E 001°40'0 0.1
2018-Feb-15 10:59N 51°54' E 001°40'0 0.2
2018-Feb-15 10:29N 51°54' E 001°40'0 0.0
2018-Feb-15 09:59N 51°54' E 001°40'0 0.0
2018-Feb-15 09:28N 51°54' E 001°40'0 0.0
2018-Feb-15 08:58N 51°54' E 001°40'0 0.0
2018-Feb-15 08:28N 51°54' E 001°40'0 0.0
2018-Feb-15 07:58N 51°54' E 001°40'0 0.4
2018-Feb-15 07:28N 51°54' E 001°40'0 0.2
2018-Feb-15 07:00N 51°54' E 001°40'0 0.2
2018-Feb-15 06:30N 51°54' E 001°40'0 0.0
2018-Feb-15 06:00N 51°54' E 001°40'0 0.0
2018-Feb-15 05:30N 51°54' E 001°40'0 0.0
2018-Feb-15 05:00N 51°54' E 001°40'0 0.0
2018-Feb-15 04:29N 51°54' E 001°40'0 0.0
2018-Feb-15 03:56N 51°54' E 001°40'0 0.0
2018-Feb-15 03:29N 51°54' E 001°40'0 0.0
2018-Feb-15 02:59N 51°54' E 001°40'0 0.0
2018-Feb-15 02:28N 51°54' E 001°40'0 0.0
2018-Feb-15 01:58N 51°54' E 001°40'0 0.0
2018-Feb-15 01:28N 51°54' E 001°40'0 0.0
2018-Feb-15 00:58N 51°54' E 001°40'0 0.0
2018-Feb-15 00:28N 51°54' E 001°40'0 0.0
2018-Feb-15 00:00N 51°54' E 001°40'0 0.0
2018-Feb-14 23:30N 51°54' E 001°40'0 0.1
2018-Feb-14 23:00N 51°54' E 001°40'0 0.0
2018-Feb-14 22:30N 51°54' E 001°40'0 0.0
2018-Feb-14 21:59N 51°54' E 001°40'0 0.0
2018-Feb-14 21:29N 51°54' E 001°40'0 0.0
2018-Feb-14 20:56N 51°54' E 001°40'0 0.0
2018-Feb-14 20:29N 51°54' E 001°40'0 0.0
2018-Feb-14 19:59N 51°54' E 001°40'0 0.0
2018-Feb-14 19:28N 51°54' E 001°40'0 0.1
2018-Feb-14 18:58N 51°54' E 001°40'0 0.0
2018-Feb-14 18:28N 51°54' E 001°40'0 0.0
2018-Feb-14 17:58N 51°54' E 001°40'0 0.1
2018-Feb-14 17:28N 51°54' E 001°40'0 0.0
2018-Feb-14 17:00N 51°54' E 001°40'0 0.0
2018-Feb-14 16:30N 51°54' E 001°40'0 0.0
2018-Feb-14 16:00N 51°54' E 001°40'0 0.0
2018-Feb-14 15:30N 51°54' E 001°40'0 0.0
2018-Feb-14 14:59N 51°54' E 001°40'0 0.1
2018-Feb-14 14:29N 51°54' E 001°40'1 2.3
2018-Feb-14 14:00N 51°55' E 001°41'3 6.2
2018-Feb-14 13:30N 51°53' E 001°44'510.5
2018-Feb-14 13:00N 51°50' E 001°51'4 7.7
2018-Feb-14 12:31N 51°51' E 001°57'4 7.7
2018-Feb-14 12:01N 51°53' E 002°03'4 7.4
2018-Feb-14 11:30N 51°54' E 002°08'5 7.9
2018-Feb-14 10:52N 51°56' E 002°16'47 9.1
2018-Feb-14 05:43N 52°03' E 003°31'2 9.4
2018-Feb-14 05:28N 52°03' E 003°35'4 9.5
2018-Feb-14 05:00N 52°03' E 003°42'5 9.5
2018-Feb-14 04:30N 52°03' E 003°50'5 9.3
2018-Feb-14 04:01N 52°02' E 003°57'612.3
2018-Feb-14 03:30N 51°58' E 004°05'3 5.6
2018-Feb-14 03:00N 51°59' E 004°01'1 2.3
2018-Feb-14 02:28N 51°57' E 004°00'0 0.0
2018-Feb-14 01:58N 51°57' E 004°00'0 0.0
2018-Feb-14 01:28N 51°57' E 004°00'0 0.0
2018-Feb-14 00:52N 51°57' E 004°00'0 0.0
2018-Feb-14 00:27N 51°57' E 004°00'0 0.0
2018-Feb-14 00:00N 51°57' E 004°00'0 0.0
2018-Feb-13 23:30N 51°57' E 004°00'0 0.1
2018-Feb-13 22:57N 51°57' E 004°00'0 0.1
2018-Feb-13 22:30N 51°57' E 004°00'0 0.0
2018-Feb-13 21:59N 51°57' E 004°00'0 0.0
2018-Feb-13 21:29N 51°57' E 004°00'0 0.0
2018-Feb-13 20:59N 51°57' E 004°00'0 0.0
2018-Feb-13 20:26N 51°57' E 004°00'0 0.0
2018-Feb-13 19:58N 51°57' E 004°00'0 0.5
2018-Feb-13 19:30N 51°58' E 004°00'2 3.9
2018-Feb-13 19:01N 51°58' E 004°03'3 5.4
2018-Feb-13 18:30N 51°60' E 003°60'713.3
2018-Feb-13 18:00N 52°00' E 003°49'3 7.0
2018-Feb-13 17:30N 52°04' E 003°47'3 5.8
2018-Feb-13 17:00N 52°06' E 003°47'3 6.4
2018-Feb-13 16:30N 52°10' E 003°47'4 8.0
2018-Feb-13 16:00N 52°14' E 003°47'4 7.4
2018-Feb-13 15:31N 52°17' E 003°47'2 3.5
2018-Feb-13 15:00N 52°19' E 003°48'2 3.2
2018-Feb-13 14:30N 52°21' E 003°48'1 3.0
2018-Feb-13 14:01N 52°22' E 003°49'1 2.9
2018-Feb-13 13:30N 52°23' E 003°49'4 7.1
2018-Feb-13 13:01N 52°27' E 003°51'5 9.9
2018-Feb-13 12:30N 52°32' E 003°52'5 9.5
2018-Feb-13 11:56N 52°37' E 003°54'7 9.2
2018-Feb-13 11:12N 52°44' E 003°56'3110.4
2018-Feb-13 08:15N 53°09' E 004°24'14710.8
2018-Feb-12 18:42N 54°00' E 008°16'310.9
2018-Feb-12 18:26N 53°59' E 008°21'614.4
2018-Feb-12 18:00N 53°58' E 008°32'815.5
2018-Feb-12 17:31N 53°54' E 008°42'713.5
2018-Feb-12 17:01N 53°50' E 008°52'816.4
2018-Feb-12 16:30N 53°53' E 009°06'713.2
2018-Feb-12 16:01N 53°52' E 009°17'714.9
2018-Feb-12 15:30N 53°46' E 009°24'713.8
2018-Feb-12 15:01N 53°40' E 009°31'612.9
2018-Feb-12 14:30N 53°35' E 009°37'611.3
2018-Feb-12 14:00N 53°34' E 009°46'5 9.2
2018-Feb-12 13:30N 53°33' E 009°54'4 7.0
2018-Feb-12 13:00N 53°32' E 009°60'0 0.2
2018-Feb-12 12:30N 53°32' E 009°60'0 0.0
2018-Feb-12 12:00N 53°32' E 009°60'0 0.0
2018-Feb-12 11:30N 53°32' E 009°60'0 0.0
2018-Feb-12 10:59N 53°32' E 009°60'0 0.0
2018-Feb-12 10:29N 53°32' E 009°60'0 0.0
2018-Feb-12 09:59N 53°32' E 009°60'0 0.0
2018-Feb-12 09:29N 53°32' E 009°60'0 0.0
2018-Feb-12 08:59N 53°32' E 009°60'0 0.0
2018-Feb-12 08:28N 53°32' E 009°60'0 0.0
2018-Feb-12 07:58N 53°32' E 009°60'0 0.0
2018-Feb-12 07:28N 53°32' E 009°60'0 0.0
2018-Feb-12 06:58N 53°32' E 009°60'0 0.0
2018-Feb-12 06:30N 53°32' E 009°60'0 0.0
2018-Feb-12 06:00N 53°32' E 009°60'0 0.0
2018-Feb-12 05:30N 53°32' E 009°60'0 0.0
2018-Feb-12 05:00N 53°32' E 009°60'0 0.0
2018-Feb-12 04:30N 53°32' E 009°60'0 0.0
2018-Feb-12 03:59N 53°32' E 009°60'0 0.0
2018-Feb-12 03:29N 53°32' E 009°60'0 0.0
2018-Feb-12 02:59N 53°32' E 009°60'0 0.0
2018-Feb-12 02:29N 53°32' E 009°60'0 0.0
2018-Feb-12 01:59N 53°32' E 009°60'0 0.0
2018-Feb-12 01:28N 53°32' E 009°60'0 0.0
2018-Feb-12 00:59N 53°32' E 009°60'0 0.0
2018-Feb-12 00:28N 53°32' E 009°60'0 0.0
2018-Feb-11 23:58N 53°32' E 009°60'0 0.0
2018-Feb-11 23:30N 53°32' E 009°60'0 0.0
2018-Feb-11 23:00N 53°32' E 009°60'0 0.0
2018-Feb-11 22:30N 53°32' E 009°60'0 0.0
2018-Feb-11 22:00N 53°32' E 009°60'0 0.0
2018-Feb-11 21:30N 53°32' E 009°60'0 0.0
2018-Feb-11 20:59N 53°32' E 009°60'0 0.0
2018-Feb-11 20:29N 53°32' E 009°60'0 0.0
2018-Feb-11 19:59N 53°32' E 009°60'0 0.0
2018-Feb-11 19:30N 53°32' E 009°60'1 2.4
2018-Feb-11 19:00N 53°33' E 009°58'4 8.7
2018-Feb-11 18:30N 53°33' E 009°51'4 8.5
2018-Feb-11 18:00N 53°34' E 009°44'510.4
2018-Feb-11 17:30N 53°36' E 009°36'5 9.7
2018-Feb-11 17:01N 53°40' E 009°31'510.6
2018-Feb-11 16:30N 53°44' E 009°26'611.5
2018-Feb-11 16:00N 53°49' E 009°22'611.9
2018-Feb-11 15:31N 53°53' E 009°14'5 9.9
2018-Feb-11 15:00N 53°52' E 009°05'612.3
2018-Feb-11 14:30N 53°51' E 008°55'611.7
2018-Feb-11 14:00N 53°51' E 008°45'611.7
2018-Feb-11 13:30N 53°56' E 008°40'916.3
2018-Feb-11 12:58N 53°59' E 008°26'816.5
2018-Feb-11 12:30N 53°60' E 008°12'713.6
2018-Feb-11 12:00N 53°59' E 008°01'611.7
2018-Feb-11 11:30N 53°58' E 007°51'4 7.8
2018-Feb-11 10:59N 53°57' E 007°45'43 9.3
2018-Feb-11 06:22N 53°47' E 006°34'510.0
2018-Feb-11 05:53N 53°46' E 006°26'4110.1
2018-Feb-11 01:52N 53°33' E 005°21'3110.1
2018-Feb-10 22:50N 53°17' E 004°37'411.0
2018-Feb-10 22:30N 53°14' E 004°34'610.9
2018-Feb-10 22:00N 53°09' E 004°30'510.9
2018-Feb-10 21:30N 53°04' E 004°26'510.5
2018-Feb-10 21:00N 52°59' E 004°22'510.2
2018-Feb-10 20:29N 52°55' E 004°17'510.1
2018-Feb-10 20:00N 52°51' E 004°14'610.3
2018-Feb-10 19:23N 52°46' E 004°06'410.1
2018-Feb-10 19:00N 52°43' E 004°02'510.1
2018-Feb-10 18:30N 52°39' E 003°56'510.0
2018-Feb-10 18:00N 52°35' E 003°51'510.0
2018-Feb-10 17:30N 52°32' E 003°46'5 9.9
2018-Feb-10 17:00N 52°28' E 003°40'5 9.8
2018-Feb-10 16:30N 52°24' E 003°35'5 9.4
2018-Feb-10 16:00N 52°20' E 003°32'5 9.6
2018-Feb-10 15:30N 52°15' E 003°31'5 9.8
2018-Feb-10 15:00N 52°10' E 003°31'8 9.8
2018-Feb-10 14:11N 52°03' E 003°24'310.2
2018-Feb-10 13:55N 52°00' E 003°24'1310.3
2018-Feb-10 12:36N 51°48' E 003°17'410.1
2018-Feb-10 12:11N 51°43' E 003°17'2 9.6
2018-Feb-10 11:57N 51°41' E 003°19'613.6
2018-Feb-10 11:30N 51°36' E 003°23'714.7
2018-Feb-10 11:00N 51°30' E 003°29'611.5
2018-Feb-10 10:30N 51°26' E 003°36'5 9.6
2018-Feb-10 10:00N 51°23' E 003°43'713.5
2018-Feb-10 09:30N 51°21' E 003°53'612.5
2018-Feb-10 09:00N 51°26' E 003°59'611.9
2018-Feb-10 08:30N 51°22' E 004°06'5 9.4
2018-Feb-10 08:00N 51°22' E 004°14'5 9.8
2018-Feb-10 07:30N 51°18' E 004°18'1 2.7
2018-Feb-10 07:00N 51°17' E 004°20'0 0.0
2018-Feb-10 06:30N 51°17' E 004°20'0 0.2
2018-Feb-10 06:00N 51°17' E 004°20'3 5.2
2018-Feb-10 05:30N 51°15' E 004°23'1 1.9
2018-Feb-10 05:00N 51°16' E 004°24'0 0.0
2018-Feb-10 04:27N 51°16' E 004°24'0 0.0
2018-Feb-10 04:00N 51°16' E 004°24'0 0.0
2018-Feb-10 03:24N 51°16' E 004°24'0 0.0
2018-Feb-10 03:00N 51°16' E 004°24'0 0.0
2018-Feb-10 02:29N 51°16' E 004°24'0 0.0
2018-Feb-10 01:56N 51°16' E 004°24'0 0.0
2018-Feb-10 01:29N 51°16' E 004°24'0 0.0
2018-Feb-10 00:56N 51°16' E 004°24'0 0.0
2018-Feb-10 00:28N 51°16' E 004°24'0 0.0
2018-Feb-09 23:58N 51°16' E 004°24'0 0.0
2018-Feb-09 23:28N 51°16' E 004°24'0 0.0
2018-Feb-09 22:58N 51°16' E 004°24'0 0.0
2018-Feb-09 22:43N 51°16' E 004°24'0 0.0
2018-Feb-09 11:00N 51°16' E 004°24'0 0.0
2018-Feb-09 02:00N 51°16' E 004°24'1 1.8
2018-Feb-09 01:30N 51°15' E 004°24'3 3.0
2018-Feb-09 00:30N 51°17' E 004°20'8 3.9
2018-Feb-08 22:30N 51°23' E 004°13'611.3
2018-Feb-08 22:00N 51°22' E 004°04'14 9.2
2018-Feb-08 20:30N 51°25' E 003°42'5814.4
2018-Feb-08 16:30N 51°16' E 002°11'1717.2
2018-Feb-08 15:30N 51°07' E 001°48'917.1
2018-Feb-08 15:00N 51°01' E 001°38'816.8
2018-Feb-08 14:30N 50°55' E 001°29'  

Dump ship's entire track history